Terminal Aerodrome Forecast
Issued by NWS Wilmington, NC

Home | Current Version | Previous Version | Text Only | Print | Product List | Glossary On
Versions: 1 2 3 4 5 6 7 8 9 10 11 12 13 14 15 16 17 18 19 20 21 22 23
000
FTUS42 KILM 010454 AAD
TAFILM
TAF AMD
KILM 010454Z 0105/0124 10009KT P6SM OVC009
     FM011400 16008KT P6SM VCSH SCT007 OVC015
      TEMPO 0117/0120 5SM -SHRA BKN025=

USA.gov is the U.S. government's official web portal to all federal, state and local government web resources and services.